Time;durP1;ratioP1;P1;durP2;ratioP2;P2;SDS_P1;SDS_P2;PMS_P1;PMS_P2;Temp;Humidity;BMP_temperature;BMP_pressure;BME280_temperature;BME280_humidity;BME280_pressure;Samples;Min_cycle;Max_cycle;Signal;HPM_P1;HPM_P2
2023/04/25 00:00:11;;;;;;;12.87;7.57;;;5.90;1.00;;;;;;5077996;28;20465;-63
2023/04/25 00:02:38;;;;;;;14.70;7.53;;;5.80;1.00;;;;;;5079994;28;20489;-63
2023/04/25 00:05:06;;;;;;;14.90;8.00;;;5.90;1.00;;;;;;5080122;28;20576;-63
2023/04/25 00:07:33;;;;;;;13.03;7.80;;;6.00;1.00;;;;;;5079277;28;20461;-62
2023/04/25 00:10:02;;;;;;;16.23;7.50;;;6.00;1.00;;;;;;5079284;28;20791;-63
2023/04/25 00:12:29;;;;;;;14.63;7.50;;;6.00;1.00;;;;;;5079838;28;20530;-63
2023/04/25 00:14:57;;;;;;;15.70;7.87;;;6.00;1.00;;;;;;5079702;28;20472;-63
2023/04/25 00:17:26;;;;;;;16.47;6.77;;;6.00;1.00;;;;;;5079107;28;20495;-63
2023/04/25 00:19:53;;;;;;;14.73;7.10;;;6.00;1.00;;;;;;5079049;28;20572;-63
2023/04/25 00:22:22;;;;;;;12.10;6.50;;;6.10;1.00;;;;;;5079433;28;20883;-63
2023/04/25 00:24:53;;;;;;;13.60;6.60;;;6.10;1.00;;;;;;5079465;28;20485;-63
2023/04/25 00:27:22;;;;;;;20.47;6.20;;;6.00;1.00;;;;;;5078811;28;20492;-63
2023/04/25 00:29:49;;;;;;;13.87;7.20;;;6.00;1.00;;;;;;5079231;28;20898;-63
2023/04/25 00:32:16;;;;;;;11.60;6.60;;;6.10;1.00;;;;;;5079198;28;20468;-63
2023/04/25 00:34:43;;;;;;;14.43;7.83;;;6.10;1.00;;;;;;5079625;28;20462;-63
2023/04/25 00:37:10;;;;;;;13.40;6.10;;;6.20;1.00;;;;;;5079331;28;20551;-63
2023/04/25 00:39:37;;;;;;;12.73;7.03;;;6.10;1.00;;;;;;5079078;28;20461;-63
2023/04/25 00:42:05;;;;;;;19.80;7.20;;;6.20;1.00;;;;;;5079415;28;20874;-63
2023/04/25 00:44:35;;;;;;;10.00;7.20;;;6.20;1.00;;;;;;5078932;28;20466;-63
2023/04/25 00:47:03;;;;;;;13.00;7.27;;;6.10;1.00;;;;;;5079060;28;20453;-63
2023/04/25 00:49:30;;;;;;;13.97;7.40;;;6.20;1.00;;;;;;5078759;28;20460;-63
2023/04/25 00:51:58;;;;;;;15.90;7.20;;;6.10;1.00;;;;;;5076771;28;20522;-63
2023/04/25 00:54:25;;;;;;;16.07;7.27;;;6.10;1.00;;;;;;5078914;28;20797;-63
2023/04/25 00:56:53;;;;;;;11.80;7.10;;;6.20;1.00;;;;;;5078457;28;20445;-63
2023/04/25 00:59:21;;;;;;;15.77;7.67;;;6.20;1.00;;;;;;5078550;28;20500;-63
2023/04/25 01:01:53;;;;;;;15.33;7.87;;;6.20;1.00;;;;;;5078384;28;20561;-63
2023/04/25 01:04:21;;;;;;;17.60;7.83;;;6.20;1.00;;;;;;5079051;28;20467;-63
2023/04/25 01:06:49;;;;;;;15.90;8.93;;;6.20;1.00;;;;;;5078561;28;20501;-63
2023/04/25 01:09:16;;;;;;;11.73;6.93;;;6.20;1.00;;;;;;5079065;28;20930;-63
2023/04/25 01:11:43;;;;;;;14.37;8.23;;;6.20;1.00;;;;;;5078145;28;20493;-63
2023/04/25 01:14:10;;;;;;;16.30;7.63;;;6.20;1.00;;;;;;5078306;28;20499;-63
2023/04/25 01:16:38;;;;;;;12.80;6.97;;;6.30;1.00;;;;;;5078812;28;20469;-63
2023/04/25 01:19:12;;;;;;;11.03;7.17;;;6.30;1.00;;;;;;5078700;28;20469;-63
2023/04/25 01:21:40;;;;;;;16.13;8.50;;;6.30;1.00;;;;;;5078440;28;20469;-63
2023/04/25 01:24:08;;;;;;;12.80;7.03;;;6.30;1.00;;;;;;5078065;28;20462;-63
2023/04/25 01:26:37;;;;;;;15.40;7.27;;;6.30;1.00;;;;;;5077981;28;20497;-63
2023/04/25 01:29:05;;;;;;;10.37;7.50;;;6.30;1.00;;;;;;5078279;28;20465;-63
2023/04/25 01:31:34;;;;;;;12.83;7.97;;;6.20;1.00;;;;;;5078144;28;20576;-63
2023/04/25 01:34:02;;;;;;;18.07;7.90;;;6.20;1.00;;;;;;5077821;28;20515;-63
2023/04/25 01:36:30;;;;;;;19.50;7.47;;;6.20;1.00;;;;;;5078079;28;20514;-63
2023/04/25 01:38:59;;;;;;;13.23;6.77;;;6.30;1.00;;;;;;5078411;28;20444;-63
2023/04/25 01:41:26;;;;;;;12.67;7.03;;;6.30;1.00;;;;;;5073547;28;20526;-63
2023/04/25 01:43:54;;;;;;;15.23;7.40;;;6.30;1.00;;;;;;5078117;28;20505;-63
2023/04/25 01:46:21;;;;;;;16.83;8.63;;;6.40;1.00;;;;;;5077971;28;20516;-63
2023/04/25 01:48:48;;;;;;;13.73;7.63;;;6.30;1.00;;;;;;5078084;28;20461;-63
2023/04/25 01:51:16;;;;;;;14.23;8.47;;;6.20;1.00;;;;;;5077931;28;20493;-63
2023/04/25 01:53:44;;;;;;;11.90;7.47;;;6.20;1.00;;;;;;5077621;28;20885;-63
2023/04/25 01:56:13;;;;;;;9.70;7.50;;;6.30;1.00;;;;;;5077659;28;20535;-63
2023/04/25 01:58:40;;;;;;;12.97;7.93;;;6.30;1.00;;;;;;5077519;28;20436;-63
2023/04/25 02:01:07;;;;;;;8.30;6.43;;;6.30;1.00;;;;;;5077972;28;20475;-63
2023/04/25 02:03:37;;;;;;;10.63;7.17;;;6.30;1.00;;;;;;5077701;28;20464;-63
2023/04/25 02:06:07;;;;;;;15.80;7.50;;;6.30;1.00;;;;;;5077516;28;20675;-63
2023/04/25 02:08:34;;;;;;;13.20;8.27;;;6.30;1.00;;;;;;5077116;28;20469;-62
2023/04/25 02:11:03;;;;;;;8.90;6.53;;;6.30;1.00;;;;;;5077763;28;20468;-61
2023/04/25 02:13:32;;;;;;;14.43;8.60;;;6.30;1.00;;;;;;5077044;28;20465;-62
2023/04/25 02:15:59;;;;;;;12.30;8.00;;;6.30;1.00;;;;;;5077112;28;20488;-62
2023/04/25 02:18:27;;;;;;;14.57;9.10;;;6.30;1.00;;;;;;5077254;28;20500;-63
2023/04/25 02:20:54;;;;;;;13.90;9.20;;;6.40;1.00;;;;;;5077325;28;20468;-62
2023/04/25 02:23:21;;;;;;;13.63;9.07;;;6.30;1.00;;;;;;5076203;28;20485;-63
2023/04/25 02:25:49;;;;;;;12.60;8.70;;;6.20;1.00;;;;;;5077162;28;20495;-63
2023/04/25 02:28:16;;;;;;;14.87;8.97;;;6.20;1.00;;;;;;5076677;28;20489;-63
2023/04/25 02:30:45;;;;;;;12.97;9.33;;;6.20;1.00;;;;;;5077476;28;20464;-63
2023/04/25 02:33:12;;;;;;;15.90;10.70;;;6.30;1.00;;;;;;5077313;28;20555;-63
2023/04/25 02:35:39;;;;;;;19.00;10.60;;;6.20;1.00;;;;;;5077126;28;20552;-64
2023/04/25 02:38:06;;;;;;;16.77;9.90;;;6.20;1.00;;;;;;5076986;28;20580;-64
2023/04/25 02:40:34;;;;;;;22.13;11.33;;;6.20;1.00;;;;;;5077133;28;20465;-63
2023/04/25 02:43:01;;;;;;;19.33;11.10;;;6.20;1.00;;;;;;5077389;28;20500;-64
2023/04/25 02:45:28;;;;;;;16.40;11.50;;;6.10;1.00;;;;;;5076620;28;20493;-63
2023/04/25 02:47:57;;;;;;;17.23;11.50;;;6.20;1.00;;;;;;5077168;28;20894;-63
2023/04/25 02:50:24;;;;;;;18.93;12.10;;;6.20;1.00;;;;;;5077232;28;20462;-64
2023/04/25 02:52:51;;;;;;;21.70;14.27;;;6.10;1.00;;;;;;5077025;28;20465;-63
2023/04/25 02:55:19;;;;;;;19.83;12.80;;;6.10;1.00;;;;;;5077087;28;20901;-63
2023/04/25 02:57:46;;;;;;;17.63;11.90;;;6.10;1.00;;;;;;5076906;28;20475;-63
2023/04/25 03:00:15;;;;;;;18.67;12.97;;;6.10;1.00;;;;;;5077277;28;20827;-63
2023/04/25 03:02:42;;;;;;;17.17;12.33;;;6.10;1.00;;;;;;5077411;28;20454;-63
2023/04/25 03:05:11;;;;;;;21.07;11.53;;;6.10;1.00;;;;;;5076929;28;20467;-63
2023/04/25 03:07:39;;;;;;;20.03;11.80;;;6.00;1.00;;;;;;5076565;28;20466;-63
2023/04/25 03:10:07;;;;;;;24.07;11.80;;;6.00;1.00;;;;;;5077045;28;20746;-64
2023/04/25 03:12:34;;;;;;;16.97;11.77;;;6.00;1.00;;;;;;5076996;28;20549;-63
2023/04/25 03:15:02;;;;;;;17.73;11.63;;;6.00;1.00;;;;;;5076641;28;20561;-63
2023/04/25 03:17:29;;;;;;;15.07;10.87;;;6.00;1.00;;;;;;5076609;28;20469;-63
2023/04/25 03:19:56;;;;;;;16.77;11.83;;;6.10;1.00;;;;;;5076731;28;20990;-63
2023/04/25 03:22:25;;;;;;;18.17;11.70;;;6.10;1.00;;;;;;5076652;28;20505;-63
2023/04/25 03:24:52;;;;;;;14.10;10.90;;;6.10;1.00;;;;;;5076843;28;20551;-64
2023/04/25 03:27:19;;;;;;;14.13;11.30;;;6.10;1.00;;;;;;5076138;28;20566;-63
2023/04/25 03:29:47;;;;;;;19.70;11.57;;;6.00;1.00;;;;;;5076464;28;20469;-63
2023/04/25 03:32:14;;;;;;;15.20;12.20;;;6.00;1.00;;;;;;5076542;28;20465;-63
2023/04/25 03:34:41;;;;;;;22.77;12.40;;;6.00;1.00;;;;;;5079577;28;20955;-63
2023/04/25 03:37:09;;;;;;;19.53;12.20;;;6.00;1.00;;;;;;5080443;28;20475;-63
2023/04/25 03:39:38;;;;;;;19.60;11.77;;;6.00;1.00;;;;;;5080134;28;20461;-64
2023/04/25 03:42:05;;;;;;;17.07;11.97;;;5.90;1.00;;;;;;5080595;28;20461;-64
2023/04/25 03:44:32;;;;;;;18.30;12.30;;;5.90;1.00;;;;;;5080641;28;20825;-64
2023/04/25 03:47:00;;;;;;;19.60;12.30;;;5.90;1.00;;;;;;5080136;28;20498;-64
2023/04/25 03:49:27;;;;;;;17.07;12.00;;;5.90;1.00;;;;;;5079929;28;20958;-64
2023/04/25 03:51:54;;;;;;;19.20;12.57;;;5.80;1.00;;;;;;5079861;28;20508;-64
2023/04/25 03:54:21;;;;;;;19.60;13.20;;;5.80;1.00;;;;;;5079936;28;20572;-64
2023/04/25 03:56:50;;;;;;;20.73;12.53;;;5.90;1.00;;;;;;5080101;28;20492;-64
2023/04/25 03:59:17;;;;;;;21.47;12.43;;;5.90;3.50;;;;;;5080301;28;20890;-64
2023/04/25 04:01:44;;;;;;;19.80;12.37;;;5.80;4.50;;;;;;5079863;28;20807;-64
2023/04/25 04:04:11;;;;;;;23.30;13.37;;;5.80;18.10;;;;;;5079848;28;20465;-64
2023/04/25 04:06:38;;;;;;;19.20;13.37;;;5.90;41.40;;;;;;5079846;28;20870;-64
2023/04/25 04:09:09;;;;;;;23.00;14.77;;;5.80;61.10;;;;;;5079894;28;20560;-65
2023/04/25 04:11:38;;;;;;;20.00;12.87;;;5.90;92.70;;;;;;5079554;28;20470;-65
2023/04/25 04:14:07;;;;;;;22.53;14.70;;;5.80;99.20;;;;;;5079519;28;20484;-65
2023/04/25 04:16:34;;;;;;;24.37;14.37;;;5.90;99.90;;;;;;5079370;28;20481;-66
2023/04/25 04:19:01;;;;;;;22.60;14.57;;;5.80;94.90;;;;;;5079644;28;20493;-65
2023/04/25 04:21:28;;;;;;;24.13;14.60;;;5.70;96.60;;;;;;5079445;28;20810;-65
2023/04/25 04:23:57;;;;;;;25.37;15.53;;;5.70;99.90;;;;;;5079479;28;20575;-65
2023/04/25 04:26:25;;;;;;;31.83;16.93;;;5.70;99.90;;;;;;5079631;28;20550;-66
2023/04/25 04:28:54;;;;;;;32.23;16.70;;;5.60;99.90;;;;;;5079422;28;20500;-65
2023/04/25 04:31:23;;;;;;;29.87;17.00;;;5.70;99.90;;;;;;5079179;28;20881;-65
2023/04/25 04:33:51;;;;;;;22.83;16.00;;;5.80;99.90;;;;;;5079403;28;20492;-65
2023/04/25 04:36:21;;;;;;;25.00;15.20;;;5.70;99.90;;;;;;5079418;28;20560;-65
2023/04/25 04:38:48;;;;;;;31.27;17.93;;;5.80;99.90;;;;;;5079424;28;20465;-65
2023/04/25 04:41:16;;;;;;;31.60;16.33;;;5.80;99.90;;;;;;5079395;28;20457;-66
2023/04/25 04:43:43;;;;;;;28.17;17.17;;;5.80;99.90;;;;;;5079167;28;20464;-65
2023/04/25 04:46:12;;;;;;;25.03;16.03;;;5.80;99.90;;;;;;5078364;28;20559;-65
2023/04/25 04:48:41;;;;;;;23.53;16.93;;;5.80;99.90;;;;;;5079021;28;20515;-65
2023/04/25 04:51:08;;;;;;;28.90;15.57;;;5.80;99.90;;;;;;5076859;28;20787;-65
2023/04/25 04:53:35;;;;;;;25.50;15.83;;;5.80;99.90;;;;;;5078544;28;20543;-66
2023/04/25 04:56:02;;;;;;;25.73;15.87;;;5.90;99.90;;;;;;5078891;28;20894;-68
2023/04/25 04:58:30;;;;;;;26.63;17.03;;;5.90;99.90;;;;;;5079049;28;21052;-62
2023/04/25 05:00:57;;;;;;;24.60;14.67;;;5.80;99.90;;;;;;5079111;28;20949;-63
2023/04/25 05:03:25;;;;;;;21.97;13.70;;;5.50;99.90;;;;;;5078640;28;20863;-65
2023/04/25 05:05:54;;;;;;;14.60;11.43;;;5.50;99.90;;;;;;5078095;28;20542;-66
2023/04/25 05:08:21;;;;;;;17.20;10.70;;;5.50;99.90;;;;;;5078136;28;20504;-66
2023/04/25 05:10:48;;;;;;;18.90;11.80;;;5.60;1.00;;;;;;5078912;28;20481;-66
2023/04/25 05:13:16;;;;;;;22.57;10.80;;;5.50;99.90;;;;;;5078695;28;20485;-66
2023/04/25 05:15:43;;;;;;;16.43;12.07;;;5.60;1.00;;;;;;5078464;28;20862;-66
2023/04/25 05:18:10;;;;;;;18.53;12.70;;;5.50;99.90;;;;;;5078395;28;20471;-65
2023/04/25 05:20:37;;;;;;;23.10;12.90;;;5.50;99.90;;;;;;5077829;28;20461;-65
2023/04/25 05:23:06;;;;;;;21.93;13.83;;;5.60;1.00;;;;;;5076997;28;20475;-65
2023/04/25 05:25:33;;;;;;;23.43;15.13;;;5.60;1.00;;;;;;5077921;28;20461;-65
2023/04/25 05:28:00;;;;;;;26.43;15.43;;;5.50;99.90;;;;;;5059911;28;20595;-65
2023/04/25 05:30:27;;;;;;;20.07;14.90;;;5.50;1.00;;;;;;5076979;28;20511;-65
2023/04/25 05:32:55;;;;;;;24.80;15.80;;;5.50;99.90;;;;;;5076737;28;20552;-65
2023/04/25 05:35:22;;;;;;;22.70;15.00;;;5.50;99.90;;;;;;5076621;28;20863;-66
2023/04/25 05:37:52;;;;;;;20.83;14.97;;;5.50;1.00;;;;;;5076737;28;20449;-65
2023/04/25 05:40:21;;;;;;;23.43;14.10;;;5.50;1.00;;;;;;5076603;28;20549;-65
2023/04/25 05:42:48;;;;;;;28.40;14.80;;;5.50;1.00;;;;;;5076516;28;20461;-65
2023/04/25 05:45:17;;;;;;;20.57;13.57;;;5.50;1.00;;;;;;5072536;28;20457;-64
2023/04/25 05:47:44;;;;;;;21.03;14.83;;;5.60;99.90;;;;;;5075469;28;20497;-64
2023/04/25 05:50:11;;;;;;;18.13;12.43;;;5.60;1.00;;;;;;5075109;28;20921;-64
2023/04/25 05:52:39;;;;;;;24.10;13.57;;;5.70;1.00;;;;;;5075897;28;20560;-64
2023/04/25 05:55:07;;;;;;;21.10;12.40;;;5.80;49.00;;;;;;5076005;28;20467;-64
2023/04/25 05:57:36;;;;;;;14.73;12.10;;;5.90;99.90;;;;;;5075245;28;20460;-63
2023/04/25 06:00:08;;;;;;;22.03;12.70;;;6.00;99.90;;;;;;5076240;28;20560;-64
2023/04/25 06:02:36;;;;;;;21.40;12.10;;;5.90;1.00;;;;;;5076677;28;20457;-64
2023/04/25 06:05:03;;;;;;;26.33;12.20;;;5.80;99.90;;;;;;5073280;28;20479;-64
2023/04/25 06:07:31;;;;;;;16.73;11.13;;;5.80;99.90;;;;;;5076190;28;20524;-64
2023/04/25 06:09:58;;;;;;;18.70;11.50;;;5.70;99.90;;;;;;5077568;28;20471;-64
2023/04/25 06:12:25;;;;;;;17.70;11.50;;;5.90;99.90;;;;;;5077482;28;20504;-64
2023/04/25 06:14:54;;;;;;;25.77;11.77;;;6.20;99.90;;;;;;5076127;28;20465;-64
2023/04/25 06:17:21;;;;;;;18.57;11.83;;;6.50;1.00;;;;;;5075252;28;20469;-64
2023/04/25 06:19:48;;;;;;;13.63;9.80;;;6.70;99.90;;;;;;5076169;28;20527;-64
2023/04/25 06:22:16;;;;;;;13.70;9.50;;;6.50;1.00;;;;;;5075959;28;20551;-64
2023/04/25 06:24:43;;;;;;;25.93;11.10;;;6.60;1.00;;;;;;5075829;28;20461;-65
2023/04/25 06:27:10;;;;;;;18.50;10.30;;;6.60;1.00;;;;;;5075731;28;21024;-65
2023/04/25 06:29:38;;;;;;;16.87;9.60;;;6.70;1.00;;;;;;5076742;28;20564;-64
2023/04/25 06:32:07;;;;;;;20.40;10.20;;;6.80;1.00;;;;;;5077516;28;20912;-64
2023/04/25 06:34:34;;;;;;;18.67;10.63;;;7.10;1.00;;;;;;5077211;28;20461;-65
2023/04/25 06:37:01;;;;;;;18.60;8.70;;;7.20;1.00;;;;;;5077579;28;20878;-65
2023/04/25 06:39:29;;;;;;;19.37;10.43;;;7.00;1.00;;;;;;5076839;28;20492;-65
2023/04/25 06:41:56;;;;;;;23.90;9.97;;;7.00;1.00;;;;;;5077083;28;20509;-65
2023/04/25 06:44:25;;;;;;;21.97;10.80;;;7.20;1.00;;;;;;5077403;28;20884;-65
2023/04/25 06:46:53;;;;;;;12.00;9.50;;;7.10;1.00;;;;;;5077269;28;20843;-65
2023/04/25 06:49:22;;;;;;;19.40;9.80;;;7.10;1.00;;;;;;5076754;28;20547;-65
2023/04/25 06:51:49;;;;;;;17.83;9.83;;;6.90;1.00;;;;;;5077086;28;20738;-65
2023/04/25 06:54:17;;;;;;;13.67;8.90;;;7.10;1.00;;;;;;5076040;28;20515;-66
2023/04/25 06:56:44;;;;;;;15.20;8.80;;;7.20;1.00;;;;;;5077159;28;20457;-66
2023/04/25 06:59:11;;;;;;;15.60;8.00;;;7.20;1.00;;;;;;5076457;28;20477;-66
2023/04/25 07:01:38;;;;;;;21.00;8.70;;;7.00;1.00;;;;;;5077356;28;20485;-66
2023/04/25 07:04:06;;;;;;;12.80;7.13;;;7.20;1.00;;;;;;5077453;28;20461;-67
2023/04/25 07:06:37;;;;;;;11.83;6.90;;;7.50;1.00;;;;;;5077562;28;20922;-67
2023/04/25 07:09:06;;;;;;;15.77;8.50;;;7.50;1.00;;;;;;5079201;28;20461;-67
2023/04/25 07:11:33;;;;;;;13.60;7.07;;;8.20;1.00;;;;;;5080706;28;20458;-67
2023/04/25 07:14:00;;;;;;;12.87;7.87;;;7.60;99.90;;;;;;5080489;28;20500;-67
2023/04/25 07:16:27;;;;;;;15.70;8.53;;;7.20;99.90;;;;;;5078741;28;20765;-67
2023/04/25 07:18:55;;;;;;;16.53;9.40;;;6.90;99.90;;;;;;5077836;28;20527;-67
2023/04/25 07:21:22;;;;;;;19.50;10.77;;;6.80;99.90;;;;;;5077287;28;20461;-67
2023/04/25 07:23:51;;;;;;;19.33;11.07;;;6.80;1.00;;;;;;5077078;28;20472;-67
2023/04/25 07:26:18;;;;;;;14.83;9.03;;;7.30;1.00;;;;;;5076334;28;20461;-68
2023/04/25 07:28:50;;;;;;;11.17;7.60;;;7.70;1.00;;;;;;5072661;28;20496;-68
2023/04/25 07:31:18;;;;;;;12.10;7.60;;;7.10;99.90;;;;;;5077301;28;20457;-68
2023/04/25 07:33:45;;;;;;;11.87;8.30;;;7.10;99.90;;;;;;5077765;28;20493;-68
2023/04/25 07:36:15;;;;;;;11.87;7.67;;;7.10;99.90;;;;;;5077558;28;20771;-68
2023/04/25 07:38:42;;;;;;;14.60;7.90;;;7.00;99.90;;;;;;5076874;28;20469;-68
2023/04/25 07:41:10;;;;;;;17.27;7.80;;;7.00;99.90;;;;;;5078912;28;20471;-68
2023/04/25 07:43:37;;;;;;;14.00;7.80;;;6.90;99.90;;;;;;5079183;28;20926;-68
2023/04/25 07:46:06;;;;;;;14.37;7.60;;;6.70;99.90;;;;;;5073074;28;20893;-68
2023/04/25 07:48:33;;;;;;;14.97;7.40;;;6.70;1.00;;;;;;5058405;28;20500;-66
2023/04/25 07:51:00;;;;;;;17.47;6.77;;;6.60;99.90;;;;;;5058974;28;20462;-64
2023/04/25 07:53:27;;;;;;;16.77;7.70;;;6.50;99.90;;;;;;5058231;28;20494;-64
2023/04/25 07:55:54;;;;;;;17.00;7.10;;;6.30;1.00;;;;;;5057491;28;20462;-64
2023/04/25 07:58:23;;;;;;;16.20;7.20;;;6.50;1.00;;;;;;5057197;28;20457;-64
2023/04/25 08:00:50;;;;;;;12.93;8.53;;;6.60;1.00;;;;;;5058329;28;20845;-64
2023/04/25 08:03:18;;;;;;;15.03;6.40;;;6.70;1.00;;;;;;5058554;28;20907;-64
2023/04/25 08:05:45;;;;;;;13.03;6.60;;;6.80;99.90;;;;;;5058113;28;20553;-63
2023/04/25 08:08:12;;;;;;;10.40;4.90;;;6.80;99.90;;;;;;5059303;28;20505;-64
2023/04/25 08:10:40;;;;;;;16.30;5.77;;;7.00;99.90;;;;;;5060157;28;20468;-64
2023/04/25 08:13:07;;;;;;;10.67;4.70;;;7.20;99.90;;;;;;5058355;28;20493;-65
2023/04/25 08:15:35;;;;;;;12.93;4.80;;;7.40;99.90;;;;;;5058384;28;20467;-65
2023/04/25 08:18:03;;;;;;;11.40;5.67;;;7.40;99.90;;;;;;5058114;28;20455;-65
2023/04/25 08:20:30;;;;;;;8.07;5.23;;;8.00;1.00;;;;;;5056893;28;20468;-65
2023/04/25 08:22:57;;;;;;;10.77;5.00;;;8.30;99.90;;;;;;5057327;28;20506;-66
2023/04/25 08:25:25;;;;;;;9.77;3.93;;;8.40;99.90;;;;;;5057407;28;20552;-66
2023/04/25 08:27:52;;;;;;;12.57;3.90;;;8.00;99.90;;;;;;5058732;28;20540;-66
2023/04/25 08:30:19;;;;;;;14.53;5.60;;;7.70;99.90;;;;;;5059988;28;20466;-66
2023/04/25 08:32:48;;;;;;;8.43;4.07;;;7.60;99.90;;;;;;5060460;28;20907;-67
2023/04/25 08:35:16;;;;;;;7.10;3.60;;;8.10;99.90;;;;;;5060503;28;20528;-67
2023/04/25 08:37:43;;;;;;;6.17;3.70;;;8.40;99.90;;;;;;5060135;28;20462;-67
2023/04/25 08:40:14;;;;;;;14.93;4.13;;;8.80;99.90;;;;;;5059621;28;20570;-67
2023/04/25 08:42:42;;;;;;;6.00;3.40;;;8.90;99.90;;;;;;5058856;28;20560;-67
2023/04/25 08:45:11;;;;;;;10.10;4.30;;;9.30;99.90;;;;;;5059509;28;20465;-67
2023/04/25 08:47:41;;;;;;;10.77;3.80;;;9.20;99.90;;;;;;5058516;28;20533;-66
2023/04/25 08:50:10;;;;;;;7.70;3.07;;;9.70;99.90;;;;;;5059122;28;20466;-66
2023/04/25 08:52:42;;;;;;;7.13;3.30;;;10.60;99.90;;;;;;5059068;28;20560;-67
2023/04/25 08:55:11;;;;;;;8.50;3.70;;;11.10;99.90;;;;;;5059127;28;20469;-67
2023/04/25 08:57:39;;;;;;;7.97;3.13;;;10.00;99.90;;;;;;5058495;28;20758;-67
2023/04/25 09:00:08;;;;;;;9.90;3.53;;;8.70;99.90;;;;;;5059052;28;20497;-67
2023/04/25 09:02:35;;;;;;;8.30;2.93;;;8.30;99.90;;;;;;5058332;28;20508;-66
2023/04/25 09:05:04;;;;;;;7.50;3.67;;;8.20;99.90;;;;;;5058747;28;20462;-66
2023/04/25 09:07:32;;;;;;;14.43;4.20;;;8.20;99.90;;;;;;5058280;28;20490;-66
2023/04/25 09:10:01;;;;;;;8.73;4.40;;;8.00;99.90;;;;;;5057728;28;20796;-65
2023/04/25 09:12:30;;;;;;;8.10;3.67;;;8.30;99.90;;;;;;5056469;28;20471;-66
2023/04/25 09:15:08;;;;;;;9.30;3.47;;;9.00;99.90;;;;;;5056520;28;20506;-65
2023/04/25 09:17:39;;;;;;;7.33;2.97;;;9.80;99.90;;;;;;5064831;28;20481;-65
2023/04/25 09:20:08;;;;;;;9.40;3.00;;;9.90;99.90;;;;;;5075550;28;20890;-65
2023/04/25 09:22:38;;;;;;;10.70;3.67;;;9.80;99.90;;;;;;5075817;28;20453;-64
2023/04/25 09:25:10;;;;;;;6.60;3.10;;;10.30;99.90;;;;;;5076714;28;20500;-65
2023/04/25 09:27:37;;;;;;;5.60;3.23;;;10.70;99.90;;;;;;5076164;28;20559;-65
2023/04/25 09:30:06;;;;;;;8.30;3.17;;;10.80;99.90;;;;;;5069583;28;20790;-65
2023/04/25 09:32:33;;;;;;;10.90;3.50;;;10.40;99.90;;;;;;5075470;28;20510;-65
2023/04/25 09:35:01;;;;;;;8.03;3.20;;;9.80;99.90;;;;;;5075049;28;20468;-65
2023/04/25 09:37:30;;;;;;;5.83;2.80;;;9.20;99.90;;;;;;5074615;28;20558;-66
2023/04/25 09:40:02;;;;;;;9.43;3.40;;;8.60;99.90;;;;;;5075258;28;20489;-66
2023/04/25 09:42:31;;;;;;;11.40;3.60;;;8.00;99.90;;;;;;5075450;28;20564;-66
2023/04/25 09:45:01;;;;;;;7.37;3.57;;;7.90;99.90;;;;;;5074985;28;20461;-66
2023/04/25 09:47:29;;;;;;;10.00;3.20;;;8.00;99.90;;;;;;5074596;28;20492;-66
2023/04/25 09:49:56;;;;;;;7.40;3.30;;;8.40;99.90;;;;;;5075335;28;20465;-65
2023/04/25 09:52:25;;;;;;;6.57;3.17;;;8.70;99.90;;;;;;5075747;28;20555;-65
2023/04/25 09:54:53;;;;;;;8.57;3.53;;;8.90;99.90;;;;;;5076577;28;20489;-65
2023/04/25 09:57:23;;;;;;;5.77;3.07;;;8.90;99.90;;;;;;5075677;28;20467;-65
2023/04/25 09:59:51;;;;;;;6.77;3.20;;;9.50;99.90;;;;;;5075877;28;20518;-65
2023/04/25 10:02:20;;;;;;;6.13;3.03;;;9.70;99.90;;;;;;5076046;28;20461;-64
2023/04/25 10:04:52;;;;;;;6.47;3.63;;;10.20;99.90;;;;;;5076562;28;20476;-64
2023/04/25 10:07:20;;;;;;;4.90;2.80;;;9.70;99.90;;;;;;5077611;28;20939;-65
2023/04/25 10:09:50;;;;;;;7.93;3.47;;;9.40;99.90;;;;;;5077535;28;20514;-65
2023/04/25 10:12:18;;;;;;;10.37;3.30;;;9.40;99.90;;;;;;5077587;28;20802;-65
2023/04/25 10:14:47;;;;;;;8.30;3.40;;;9.50;99.90;;;;;;5077617;28;20460;-64
2023/04/25 10:17:15;;;;;;;6.20;3.00;;;9.60;99.90;;;;;;5077827;28;20464;-64
2023/04/25 10:19:43;;;;;;;5.67;3.53;;;9.30;99.90;;;;;;5076677;28;20949;-65
2023/04/25 10:22:15;;;;;;;7.50;3.20;;;9.20;99.90;;;;;;5077582;28;20462;-65
2023/04/25 10:24:43;;;;;;;5.83;2.87;;;9.60;99.90;;;;;;5077932;28;20551;-64
2023/04/25 10:27:11;;;;;;;5.23;2.47;;;10.50;99.90;;;;;;5076802;28;20518;-64
2023/04/25 10:29:39;;;;;;;10.60;2.90;;;10.20;99.90;;;;;;5077005;28;20493;-64
2023/04/25 10:32:08;;;;;;;8.23;3.43;;;10.30;99.90;;;;;;5077291;28;20552;-65
2023/04/25 10:34:40;;;;;;;5.30;2.90;;;10.10;99.90;;;;;;5077330;28;20468;-64
2023/04/25 10:37:10;;;;;;;7.00;3.33;;;10.10;99.90;;;;;;5076688;28;20461;-64
2023/04/25 10:39:40;;;;;;;4.40;2.70;;;10.10;99.90;;;;;;5075449;28;20504;-64
2023/04/25 10:42:07;;;;;;;4.77;2.63;;;9.70;99.90;;;;;;5075637;28;20461;-64
2023/04/25 10:44:35;;;;;;;10.03;3.37;;;9.80;99.90;;;;;;5072478;28;20568;-64
2023/04/25 10:47:05;;;;;;;6.43;2.53;;;10.80;99.90;;;;;;5074772;28;20515;-64
2023/04/25 10:49:35;;;;;;;4.47;2.63;;;11.70;99.90;;;;;;5074137;28;20477;-64
2023/04/25 10:52:28;;;;;;;6.70;3.10;;;12.30;99.90;;;;;;5075859;28;20890;-63
2023/04/25 10:54:57;;;;;;;6.00;2.73;;;12.40;99.90;;;;;;5056795;28;20469;-64
2023/04/25 10:57:38;;;;;;;4.63;2.70;;;12.40;99.90;;;;;;5055543;28;20519;-64
2023/04/25 11:00:14;;;;;;;3.33;2.63;;;12.40;99.90;;;;;;5055576;28;20562;-64
2023/04/25 11:02:46;;;;;;;5.80;3.10;;;11.60;99.90;;;;;;5056585;28;20454;-65
2023/04/25 11:05:37;;;;;;;7.30;3.03;;;11.10;99.90;;;;;;5057284;28;20454;-65
2023/04/25 11:08:09;;;;;;;6.23;3.40;;;11.10;99.90;;;;;;5056791;28;20581;-64
2023/04/25 11:10:36;;;;;;;6.53;2.80;;;11.10;99.90;;;;;;5056878;28;20462;-63
2023/04/25 11:13:04;;;;;;;4.87;2.70;;;11.20;99.90;;;;;;5057116;28;20524;-63
2023/04/25 11:15:31;;;;;;;3.90;2.27;;;11.30;99.90;;;;;;5056526;28;20470;-63
2023/04/25 11:17:58;;;;;;;14.80;4.60;;;12.00;99.90;;;;;;5056725;28;20789;-63
2023/04/25 11:20:29;;;;;;;4.80;2.30;;;12.70;99.90;;;;;;5056423;28;20519;-64
2023/04/25 11:23:00;;;;;;;4.07;3.10;;;12.70;99.90;;;;;;5055482;28;20466;-65
2023/04/25 11:25:27;;;;;;;6.23;2.93;;;11.50;99.90;;;;;;5056487;28;20462;-64
2023/04/25 11:27:55;;;;;;;5.17;3.00;;;11.20;99.90;;;;;;5056182;28;20584;-63
2023/04/25 11:30:24;;;;;;;8.47;3.07;;;11.50;99.90;;;;;;5057003;28;20462;-63
2023/04/25 11:32:52;;;;;;;5.13;3.10;;;10.80;99.90;;;;;;5072882;28;20953;-64
2023/04/25 11:35:20;;;;;;;5.10;3.30;;;11.00;99.90;;;;;;5076115;28;20469;-64
2023/04/25 11:37:49;;;;;;;6.37;3.00;;;10.80;99.90;;;;;;5072587;28;20448;-64
2023/04/25 11:40:16;;;;;;;4.07;2.90;;;10.10;99.90;;;;;;5053735;28;20458;-64
2023/04/25 11:42:46;;;;;;;11.70;3.40;;;9.70;99.90;;;;;;5054783;28;20503;-65
2023/04/25 11:45:14;;;;;;;7.70;3.03;;;9.20;99.90;;;;;;5055272;28;20473;-65
2023/04/25 11:47:41;;;;;;;5.30;2.80;;;8.70;99.90;;;;;;5054557;28;20493;-65
2023/04/25 11:50:10;;;;;;;7.70;3.03;;;8.70;99.90;;;;;;5054688;28;20498;-64
2023/04/25 11:52:38;;;;;;;6.70;3.53;;;8.90;99.90;;;;;;5055392;28;20548;-63
2023/04/25 11:55:10;;;;;;;6.23;2.87;;;9.10;99.90;;;;;;5058358;28;20835;-62
2023/04/25 11:57:38;;;;;;;8.63;3.10;;;9.40;99.90;;;;;;5075104;28;20465;-63
2023/04/25 12:00:12;;;;;;;7.47;3.47;;;9.20;99.90;;;;;;5076968;28;20449;-62
2023/04/25 12:02:42;;;;;;;10.57;3.33;;;9.40;99.90;;;;;;5075127;28;20497;-63
2023/04/25 12:05:10;;;;;;;4.87;2.90;;;9.50;99.90;;;;;;5077507;28;20468;-63
2023/04/25 12:07:38;;;;;;;7.30;3.27;;;9.30;99.90;;;;;;5075178;28;20460;-62
2023/04/25 12:10:08;;;;;;;8.77;2.70;;;9.40;99.90;;;;;;5077920;28;20820;-62
2023/04/25 12:12:36;;;;;;;8.30;3.00;;;10.00;99.90;;;;;;5077942;28;20551;-62
2023/04/25 12:15:11;;;;;;;8.63;3.40;;;10.60;99.90;;;;;;5077193;28;20461;-62
2023/04/25 12:17:39;;;;;;;7.00;3.23;;;10.70;99.90;;;;;;5079286;28;20460;-63
2023/04/25 12:20:09;;;;;;;3.27;2.57;;;10.90;99.90;;;;;;5079666;28;20496;-63
2023/04/25 12:22:37;;;;;;;6.43;3.37;;;11.80;99.90;;;;;;5078503;28;20818;-62
2023/04/25 12:25:05;;;;;;;3.73;2.57;;;12.60;99.90;;;;;;5077208;28;20544;-62
2023/04/25 12:27:33;;;;;;;5.17;2.70;;;12.50;99.90;;;;;;5073933;28;20484;-62
2023/04/25 12:30:01;;;;;;;8.20;3.03;;;12.60;99.90;;;;;;5074846;28;20878;-63
2023/04/25 12:32:28;;;;;;;5.80;2.90;;;12.60;99.90;;;;;;5073954;28;20551;-62
2023/04/25 12:34:56;;;;;;;5.63;2.93;;;12.80;99.90;;;;;;5074821;28;20461;-63
2023/04/25 12:37:23;;;;;;;8.13;3.07;;;13.10;99.90;;;;;;5074286;28;20465;-63
2023/04/25 12:39:50;;;;;;;4.67;3.17;;;12.90;99.90;;;;;;5074156;28;20762;-64
2023/04/25 12:42:17;;;;;;;5.93;3.43;;;12.50;99.90;;;;;;5074248;28;20555;-64
2023/04/25 12:44:46;;;;;;;5.90;3.73;;;11.40;99.90;;;;;;5074237;28;20841;-63
2023/04/25 12:47:13;;;;;;;9.90;3.27;;;11.30;99.90;;;;;;5076049;28;20515;-63
2023/04/25 12:49:41;;;;;;;3.57;2.90;;;11.40;99.90;;;;;;5075717;28;20489;-64
2023/04/25 12:52:08;;;;;;;5.53;3.60;;;11.10;99.90;;;;;;5073405;28;20465;-63
2023/04/25 12:54:35;;;;;;;6.93;3.03;;;11.20;99.90;;;;;;5073446;28;20556;-62